CMA CGM Tosca — FMEL — position and weather

sailwx.info

Track history (hours):
 
Tides and Currents Weather Stations Pressure Air Temp Water Temp Dewpoint Dewpoint Depression Visibility Wind Speed Wind Dir Waves Ship Positions

CMA CGM Tosca

Last reported at 2015-Aug-28 01:22 UTC. Time now 2015-Sep-04 07:53 UTC.
Position N 30°44' E 032°20'.

Length 334 m; draft 12.6 m.

Type: Ship. MMSI: 228335900.

Date/timePositionNaut miles runAvg speedWind from/ knotsBaromVisibWave heightAir tempDewpointWater temp
2015-Aug-28 01:22N 30°44' E 032°20'27 9.2
2015-Aug-27 22:28N 31°11' E 032°18'13 6.9
2015-Aug-27 20:33N 31°24' E 032°20'0 0.4
2015-Aug-27 19:33N 31°23' E 032°19'0 0.0
2015-Aug-27 18:30N 31°23' E 032°19'0 0.0
2015-Aug-27 17:21N 31°23' E 032°19'4 1.3
2015-Aug-27 14:33N 31°27' E 032°21'15413.8
2015-Aug-27 03:25N 33°21' E 034°23'1214.3
2015-Aug-27 02:33N 33°29' E 034°34'1514.4
2015-Aug-27 01:31N 33°39' E 034°48'1414.4
2015-Aug-27 00:33N 33°47' E 035°01'40 1.5
2015-Aug-25 22:30N 33°57' E 034°14'1516.0
2015-Aug-25 21:33N 33°57' E 033°56'1816.0
2015-Aug-25 20:24N 33°57' E 033°34'1315.8
2015-Aug-25 19:34N 33°57' E 033°18'1615.9
2015-Aug-25 18:32N 33°57' E 032°58'1716.0
2015-Aug-25 17:28N 33°56' E 032°37'  
2015-Aug-23 11:29N 36°09' E 015°25'1516.3
2015-Aug-23 10:34N 36°14' E 015°08'1616.0
2015-Aug-23 09:34N 36°18' E 014°48'1616.0
2015-Aug-23 08:34N 36°23' E 014°30'1616.1
2015-Aug-23 07:33N 36°29' E 014°11'1615.9
2015-Aug-23 06:33N 36°33' E 013°52'1716.8
2015-Aug-23 05:33N 36°38' E 013°32'1717.1
2015-Aug-23 04:34N 36°44' E 013°12'1717.2
2015-Aug-23 03:34N 36°49' E 012°51'1717.2
2015-Aug-23 02:34N 36°54' E 012°31'1817.3
2015-Aug-23 01:33N 36°57' E 012°09'1716.6
2015-Aug-23 00:31N 37°06' E 011°51'1616.3
2015-Aug-22 23:32N 37°12' E 011°33'1816.0
2015-Aug-22 22:25N 37°21' E 011°13'1416.3
2015-Aug-22 21:33N 37°25' E 010°56'1616.4
2015-Aug-22 20:34N 37°30' E 010°36'1716.4
2015-Aug-22 19:33N 37°33' E 010°16'1616.4
2015-Aug-22 18:33N 37°34' E 009°55'1616.4
2015-Aug-22 17:33N 37°36' E 009°35'1616.3
2015-Aug-22 16:33N 37°40' E 009°14'1616.2
2015-Aug-22 15:33N 37°44' E 008°54'1616.4
2015-Aug-22 14:34N 37°42' E 008°34'1616.4
2015-Aug-22 13:33N 37°39' E 008°14'8216.4
2015-Aug-22 08:33N 37°26' E 006°32'3717.7
2015-Aug-22 06:28N 37°21' E 005°46'1717.8
2015-Aug-22 05:32N 37°18' E 005°25'1717.6
2015-Aug-22 04:33N 37°16' E 005°04'1817.5
2015-Aug-22 03:33N 37°13' E 004°42'1717.1
2015-Aug-22 02:33N 37°10' E 004°21'1717.1
2015-Aug-22 01:33N 37°08' E 003°59'1717.3
2015-Aug-22 00:33N 37°05' E 003°38'1817.6
2015-Aug-21 23:33N 37°02' E 003°16'1717.3
2015-Aug-21 22:34N 36°60' E 002°55'1717.3
2015-Aug-21 21:33N 36°57' E 002°33'1716.7
2015-Aug-21 20:33N 36°55' E 002°13'1616.5
2015-Aug-21 19:34N 36°52' E 001°52'1514.5
2015-Aug-21 18:34N 36°50' E 001°34'1514.5
2015-Aug-21 17:33N 36°47' E 001°16'1515.2
2015-Aug-21 16:34N 36°45' E 000°58'1616.2
2015-Aug-21 15:34N 36°42' E 000°38'1716.9
2015-Aug-21 14:33N 36°40' E 000°17'1716.6
2015-Aug-21 13:33N 36°38' W 000°04'1616.2
2015-Aug-21 12:33N 36°35' W 000°24'1615.7
2015-Aug-21 11:33N 36°33' W 000°43'1615.7
2015-Aug-21 10:33N 36°31' W 001°02'1716.1
2015-Aug-21 09:31N 36°28' W 001°23'2116.0
2015-Aug-21 08:11N 36°25' W 001°49'1115.9
2015-Aug-21 07:28N 36°23' W 002°03'1515.7
2015-Aug-21 06:31N 36°21' W 002°21'1515.4
2015-Aug-21 05:31N 36°19' W 002°40'32216.1
2015-Aug-20 09:32N 36°35' W 009°20'1716.5
2015-Aug-20 08:32N 36°49' W 009°33'1616.4
2015-Aug-20 07:34N 37°04' W 009°38'1616.3
2015-Aug-20 06:34N 37°20' W 009°43'1616.1
2015-Aug-20 05:33N 37°36' W 009°47'1615.9
2015-Aug-20 04:34N 37°51' W 009°52'1616.0
2015-Aug-20 03:33N 38°07' W 009°57'1616.5
2015-Aug-20 02:33N 38°23' W 010°01'1716.9
2015-Aug-20 01:33N 38°39' W 010°07'1616.4
2015-Aug-20 00:34N 38°55' W 010°07'1716.6
2015-Aug-19 23:33N 39°12' W 010°06'1616.4
2015-Aug-19 22:33N 39°28' W 010°06'1616.3
2015-Aug-19 21:33N 39°45' W 010°06'1916.3
2015-Aug-19 20:21N 40°04' W 010°07'1716.4
2015-Aug-19 19:19N 40°21' W 010°07'1216.5
2015-Aug-19 18:33N 40°34' W 010°06'1716.6
2015-Aug-19 17:33N 40°50' W 010°06'7017.5
2015-Aug-19 13:33N 42°00' W 010°06'1919.2
2015-Aug-19 12:32N 42°20' W 010°08'54816.0
2015-Aug-18 02:14N 49°58' W 002°56'1218.2
2015-Aug-18 01:33N 50°02' W 002°38'  
Track history (hours):
 
Tides and Currents Weather Stations Pressure Air Temp Water Temp Dewpoint Dewpoint Depression Visibility Wind Speed Wind Dir Waves Ship Positions

CMA CGM Tosca

Last reported at 2015-Aug-28 01:22 UTC. Time now 2015-Sep-04 07:53 UTC.
Position N 30°44' E 032°20'.

Length 334 m; draft 12.6 m.

Type: Ship. MMSI: 228335900.

Date/timePositionNaut miles runAvg speedWind from/ knotsBaromVisibWave heightAir tempDewpointWater temp
2015-Aug-28 01:22N 30°44' E 032°20'27 9.2
2015-Aug-27 22:28N 31°11' E 032°18'13 6.9
2015-Aug-27 20:33N 31°24' E 032°20'0 0.4
2015-Aug-27 19:33N 31°23' E 032°19'0 0.0
2015-Aug-27 18:30N 31°23' E 032°19'0 0.0
2015-Aug-27 17:21N 31°23' E 032°19'4 1.3
2015-Aug-27 14:33N 31°27' E 032°21'15413.8
2015-Aug-27 03:25N 33°21' E 034°23'1214.3
2015-Aug-27 02:33N 33°29' E 034°34'1514.4
2015-Aug-27 01:31N 33°39' E 034°48'1414.4
2015-Aug-27 00:33N 33°47' E 035°01'40 1.5
2015-Aug-25 22:30N 33°57' E 034°14'1516.0
2015-Aug-25 21:33N 33°57' E 033°56'1816.0
2015-Aug-25 20:24N 33°57' E 033°34'1315.8
2015-Aug-25 19:34N 33°57' E 033°18'1615.9
2015-Aug-25 18:32N 33°57' E 032°58'1716.0
2015-Aug-25 17:28N 33°56' E 032°37'  
2015-Aug-23 11:29N 36°09' E 015°25'1516.3
2015-Aug-23 10:34N 36°14' E 015°08'1616.0
2015-Aug-23 09:34N 36°18' E 014°48'1616.0
2015-Aug-23 08:34N 36°23' E 014°30'1616.1
2015-Aug-23 07:33N 36°29' E 014°11'1615.9
2015-Aug-23 06:33N 36°33' E 013°52'1716.8
2015-Aug-23 05:33N 36°38' E 013°32'1717.1
2015-Aug-23 04:34N 36°44' E 013°12'1717.2
2015-Aug-23 03:34N 36°49' E 012°51'1717.2
2015-Aug-23 02:34N 36°54' E 012°31'1817.3
2015-Aug-23 01:33N 36°57' E 012°09'1716.6
2015-Aug-23 00:31N 37°06' E 011°51'1616.3
2015-Aug-22 23:32N 37°12' E 011°33'1816.0
2015-Aug-22 22:25N 37°21' E 011°13'1416.3
2015-Aug-22 21:33N 37°25' E 010°56'1616.4
2015-Aug-22 20:34N 37°30' E 010°36'1716.4
2015-Aug-22 19:33N 37°33' E 010°16'1616.4
2015-Aug-22 18:33N 37°34' E 009°55'1616.4
2015-Aug-22 17:33N 37°36' E 009°35'1616.3
2015-Aug-22 16:33N 37°40' E 009°14'1616.2
2015-Aug-22 15:33N 37°44' E 008°54'1616.4
2015-Aug-22 14:34N 37°42' E 008°34'1616.4
2015-Aug-22 13:33N 37°39' E 008°14'8216.4
2015-Aug-22 08:33N 37°26' E 006°32'3717.7
2015-Aug-22 06:28N 37°21' E 005°46'1717.8
2015-Aug-22 05:32N 37°18' E 005°25'1717.6
2015-Aug-22 04:33N 37°16' E 005°04'1817.5
2015-Aug-22 03:33N 37°13' E 004°42'1717.1
2015-Aug-22 02:33N 37°10' E 004°21'1717.1
2015-Aug-22 01:33N 37°08' E 003°59'1717.3
2015-Aug-22 00:33N 37°05' E 003°38'1817.6
2015-Aug-21 23:33N 37°02' E 003°16'1717.3
2015-Aug-21 22:34N 36°60' E 002°55'1717.3
2015-Aug-21 21:33N 36°57' E 002°33'1716.7
2015-Aug-21 20:33N 36°55' E 002°13'1616.5
2015-Aug-21 19:34N 36°52' E 001°52'1514.5
2015-Aug-21 18:34N 36°50' E 001°34'1514.5
2015-Aug-21 17:33N 36°47' E 001°16'1515.2
2015-Aug-21 16:34N 36°45' E 000°58'1616.2
2015-Aug-21 15:34N 36°42' E 000°38'1716.9
2015-Aug-21 14:33N 36°40' E 000°17'1716.6
2015-Aug-21 13:33N 36°38' W 000°04'1616.2
2015-Aug-21 12:33N 36°35' W 000°24'1615.7
2015-Aug-21 11:33N 36°33' W 000°43'1615.7
2015-Aug-21 10:33N 36°31' W 001°02'1716.1
2015-Aug-21 09:31N 36°28' W 001°23'2116.0
2015-Aug-21 08:11N 36°25' W 001°49'1115.9
2015-Aug-21 07:28N 36°23' W 002°03'1515.7
2015-Aug-21 06:31N 36°21' W 002°21'1515.4
2015-Aug-21 05:31N 36°19' W 002°40'32216.1
2015-Aug-20 09:32N 36°35' W 009°20'1716.5
2015-Aug-20 08:32N 36°49' W 009°33'1616.4
2015-Aug-20 07:34N 37°04' W 009°38'1616.3
2015-Aug-20 06:34N 37°20' W 009°43'1616.1
2015-Aug-20 05:33N 37°36' W 009°47'1615.9
2015-Aug-20 04:34N 37°51' W 009°52'1616.0
2015-Aug-20 03:33N 38°07' W 009°57'1616.5
2015-Aug-20 02:33N 38°23' W 010°01'1716.9
2015-Aug-20 01:33N 38°39' W 010°07'1616.4
2015-Aug-20 00:34N 38°55' W 010°07'1716.6
2015-Aug-19 23:33N 39°12' W 010°06'1616.4
2015-Aug-19 22:33N 39°28' W 010°06'1616.3
2015-Aug-19 21:33N 39°45' W 010°06'1916.3
2015-Aug-19 20:21N 40°04' W 010°07'1716.4
2015-Aug-19 19:19N 40°21' W 010°07'1216.5
2015-Aug-19 18:33N 40°34' W 010°06'1716.6
2015-Aug-19 17:33N 40°50' W 010°06'7017.5
2015-Aug-19 13:33N 42°00' W 010°06'1919.2
2015-Aug-19 12:32N 42°20' W 010°08'54816.0
2015-Aug-18 02:14N 49°58' W 002°56'1218.2
2015-Aug-18 01:33N 50°02' W 002°38'  

Dump ship's entire track history